Time;durP1;ratioP1;P1;durP2;ratioP2;P2;SDS_P1;SDS_P2;PMS_P1;PMS_P2;Temp;Humidity;BMP_temperature;BMP_pressure;BME280_temperature;BME280_humidity;BME280_pressure;Samples;Min_cycle;Max_cycle;Signal;HPM_P1;HPM_P2
2023/05/12 00:01:59;;;;;;;28.40;13.68;;;11.30;99.90;;;;;;5018563;28;20033;-71
2023/05/12 00:04:25;;;;;;;27.55;12.75;;;11.30;99.90;;;;;;5051101;28;20044;-71
2023/05/12 00:06:51;;;;;;;30.95;13.98;;;11.30;99.90;;;;;;5048381;28;20459;-71
2023/05/12 00:09:17;;;;;;;31.92;13.70;;;11.30;99.90;;;;;;5027502;28;20033;-71
2023/05/12 00:11:42;;;;;;;34.40;13.82;;;11.30;99.90;;;;;;5016008;28;20499;-71
2023/05/12 00:14:08;;;;;;;38.03;15.95;;;11.30;99.90;;;;;;5032088;28;20509;-71
2023/05/12 00:16:34;;;;;;;36.72;15.95;;;11.30;99.90;;;;;;5050755;28;20040;-71
2023/05/12 00:19:00;;;;;;;37.22;16.35;;;11.30;99.90;;;;;;5030904;28;20087;-70
2023/05/12 00:21:25;;;;;;;45.17;18.23;;;11.30;99.90;;;;;;5030172;28;20036;-71
2023/05/12 00:23:51;;;;;;;42.50;17.75;;;11.30;99.90;;;;;;5033361;28;20048;-71
2023/05/12 00:26:17;;;;;;;48.92;18.23;;;11.30;99.90;;;;;;5034318;28;20468;-71
2023/05/12 00:28:42;;;;;;;44.97;17.80;;;11.40;99.90;;;;;;5032924;28;20131;-71
2023/05/12 00:31:08;;;;;;;52.22;19.98;;;11.30;99.90;;;;;;5033065;28;20445;-70
2023/05/12 00:33:34;;;;;;;47.45;19.75;;;11.30;99.90;;;;;;5032205;28;20036;-69
2023/05/12 00:36:02;;;;;;;49.92;19.98;;;11.30;99.90;;;;;;5016423;28;20497;-70
2023/05/12 00:38:27;;;;;;;50.83;20.20;;;11.30;99.90;;;;;;5000716;28;20152;-69
2023/05/12 00:40:53;;;;;;;54.75;20.63;;;11.40;99.90;;;;;;5001433;28;20080;-69
2023/05/12 00:43:19;;;;;;;57.80;22.70;;;11.40;99.90;;;;;;5036359;28;20504;-70
2023/05/12 00:45:45;;;;;;;57.63;22.63;;;11.40;99.90;;;;;;5029924;28;20349;-70
2023/05/12 00:48:10;;;;;;;63.97;23.90;;;11.40;99.90;;;;;;5048406;28;20203;-70
2023/05/12 00:50:36;;;;;;;64.30;24.13;;;11.40;99.90;;;;;;5049547;28;20056;-70
2023/05/12 00:53:04;;;;;;;58.30;23.15;;;11.40;99.90;;;;;;5029593;28;20036;-70
2023/05/12 00:55:30;;;;;;;71.80;25.08;;;11.40;99.90;;;;;;5031693;28;20041;-70
2023/05/12 00:57:56;;;;;;;61.97;24.38;;;11.40;99.90;;;;;;5027821;28;20338;-70
2023/05/12 01:00:22;;;;;;;67.53;25.02;;;11.40;99.90;;;;;;5015147;28;20049;-71
2023/05/12 01:02:47;;;;;;;66.85;25.17;;;11.40;99.90;;;;;;5045953;28;20417;-69
2023/05/12 01:05:14;;;;;;;65.65;25.88;;;11.40;99.90;;;;;;5031913;28;20136;-70
2023/05/12 01:07:41;;;;;;;65.85;25.05;;;11.40;99.90;;;;;;5047142;28;20044;-69
2023/05/12 01:10:20;;;;;;;74.13;26.48;;;11.40;99.90;;;;;;5046997;28;20508;-69
2023/05/12 01:12:46;;;;;;;76.70;26.88;;;11.40;99.90;;;;;;5019793;28;20068;-70
2023/05/12 01:15:12;;;;;;;82.68;28.23;;;11.40;99.90;;;;;;5049454;28;20037;-70
2023/05/12 01:17:43;;;;;;;75.28;27.67;;;11.40;99.90;;;;;;5048742;28;20059;-69
2023/05/12 01:20:12;;;;;;;82.00;28.52;;;11.40;99.90;;;;;;5048987;28;20036;-69
2023/05/12 01:22:38;;;;;;;81.97;29.05;;;11.40;99.90;;;;;;5047621;28;20045;-69
2023/05/12 01:25:08;;;;;;;77.72;27.08;;;11.40;99.90;;;;;;5030872;28;20226;-71
2023/05/12 01:27:38;;;;;;;87.15;27.58;;;11.40;99.90;;;;;;5044788;28;20041;-71
2023/05/12 01:30:05;;;;;;;72.35;26.35;;;11.40;99.90;;;;;;5035097;28;20160;-71
2023/05/12 01:32:31;;;;;;;82.18;27.88;;;11.40;99.90;;;;;;5059751;28;20060;-71
2023/05/12 01:34:56;;;;;;;91.55;29.90;;;11.50;99.90;;;;;;5063497;28;20033;-71
2023/05/12 01:37:25;;;;;;;84.95;28.60;;;11.50;99.90;;;;;;5055235;28;20097;-71
2023/05/12 01:39:51;;;;;;;84.90;28.70;;;11.50;99.90;;;;;;5057789;28;20032;-71
2023/05/12 01:42:17;;;;;;;74.88;28.60;;;11.50;99.90;;;;;;5052132;28;20044;-71
2023/05/12 01:44:43;;;;;;;81.38;29.67;;;11.50;99.90;;;;;;5037308;28;20040;-71
2023/05/12 01:47:10;;;;;;;78.70;29.60;;;11.50;99.90;;;;;;5034850;28;20049;-71
2023/05/12 01:49:36;;;;;;;91.47;28.77;;;11.50;99.90;;;;;;5042867;28;20287;-71
2023/05/12 01:52:03;;;;;;;88.00;31.10;;;11.50;99.90;;;;;;5051604;28;20519;-71
2023/05/12 01:54:28;;;;;;;94.93;29.83;;;11.50;99.90;;;;;;5033260;28;20033;-71
2023/05/12 01:56:54;;;;;;;89.43;30.73;;;11.60;99.90;;;;;;5051678;28;20486;-71
2023/05/12 01:59:20;;;;;;;74.57;29.38;;;11.50;99.90;;;;;;5068659;28;20481;-70
2023/05/12 02:01:45;;;;;;;80.47;29.13;;;11.50;99.90;;;;;;5074739;28;20044;-71
2023/05/12 02:04:11;;;;;;;88.75;29.75;;;11.60;99.90;;;;;;5039456;28;20299;-70
2023/05/12 02:06:37;;;;;;;79.65;30.25;;;11.60;99.90;;;;;;5037061;28;20053;-71
2023/05/12 02:09:03;;;;;;;83.28;30.77;;;11.60;99.90;;;;;;5050015;28;20033;-71
2023/05/12 02:11:28;;;;;;;89.43;31.17;;;11.60;99.90;;;;;;5038443;28;20416;-71
2023/05/12 02:13:55;;;;;;;89.75;31.30;;;11.60;99.90;;;;;;5042171;28;20037;-71
2023/05/12 02:16:20;;;;;;;90.68;29.85;;;11.60;99.90;;;;;;5035883;28;20039;-72
2023/05/12 02:18:46;;;;;;;80.55;30.30;;;11.60;99.90;;;;;;5041416;28;20041;-72
2023/05/12 02:21:12;;;;;;;78.55;30.65;;;11.60;99.90;;;;;;5045915;28;20044;-70
2023/05/12 02:23:38;;;;;;;86.70;30.48;;;11.60;99.90;;;;;;5056780;28;21093;-71
2023/05/12 02:26:03;;;;;;;87.18;30.98;;;11.70;99.90;;;;;;5033871;28;20041;-71
2023/05/12 02:28:29;;;;;;;87.38;31.42;;;11.60;99.90;;;;;;5048195;28;20417;-71
2023/05/12 02:30:55;;;;;;;84.35;31.25;;;11.60;99.90;;;;;;5030523;28;20143;-70
2023/05/12 02:33:22;;;;;;;93.00;32.08;;;11.60;99.90;;;;;;5047584;28;20052;-71
2023/05/12 02:35:48;;;;;;;82.32;29.25;;;11.70;99.90;;;;;;5057006;28;20316;-71
2023/05/12 02:38:13;;;;;;;84.57;31.10;;;11.70;99.90;;;;;;5060935;28;20468;-71
2023/05/12 02:40:39;;;;;;;86.57;31.67;;;11.70;99.90;;;;;;5013285;28;20041;-71
2023/05/12 02:43:05;;;;;;;78.60;32.78;;;11.70;99.90;;;;;;5032273;28;20025;-71
2023/05/12 02:45:31;;;;;;;91.88;31.98;;;11.70;99.90;;;;;;5047023;28;20045;-71
2023/05/12 02:47:56;;;;;;;86.93;33.38;;;11.70;99.90;;;;;;5018804;28;20036;-70
2023/05/12 02:50:22;;;;;;;96.15;32.95;;;11.70;99.90;;;;;;5035708;28;20061;-71
2023/05/12 02:52:49;;;;;;;91.13;32.33;;;11.80;99.90;;;;;;5035816;28;20041;-71
2023/05/12 02:55:15;;;;;;;97.28;33.80;;;11.70;99.90;;;;;;5047187;28;20125;-70
2023/05/12 02:57:41;;;;;;;94.50;34.15;;;11.80;99.90;;;;;;5068332;28;20456;-70
2023/05/12 03:00:07;;;;;;;108.13;34.75;;;11.80;99.90;;;;;;5048524;28;20033;-70
2023/05/12 03:02:34;;;;;;;101.15;35.65;;;11.80;99.90;;;;;;5050503;28;20072;-71
2023/05/12 03:05:01;;;;;;;104.38;32.63;;;11.80;99.90;;;;;;5033647;28;20044;-70
2023/05/12 03:07:26;;;;;;;96.43;33.75;;;11.80;99.90;;;;;;5051207;28;20045;-71
2023/05/12 03:09:52;;;;;;;108.82;34.75;;;11.80;99.90;;;;;;5056438;28;20044;-70
2023/05/12 03:12:18;;;;;;;93.32;34.20;;;11.80;99.90;;;;;;5031260;28;20098;-71
2023/05/12 03:14:44;;;;;;;107.28;36.42;;;11.70;99.90;;;;;;5056695;28;20052;-71
2023/05/12 03:17:09;;;;;;;105.20;36.05;;;11.80;99.90;;;;;;5044564;28;20527;-71
2023/05/12 03:19:35;;;;;;;111.28;36.17;;;11.70;99.90;;;;;;5010476;28;20086;-71
2023/05/12 03:22:02;;;;;;;107.72;35.10;;;11.80;99.90;;;;;;5047112;28;20490;-71
2023/05/12 03:24:28;;;;;;;119.53;37.13;;;11.80;99.90;;;;;;5040342;28;20399;-71
2023/05/12 03:26:54;;;;;;;112.60;37.63;;;11.70;99.90;;;;;;5057357;28;20086;-70
2023/05/12 03:29:21;;;;;;;119.70;36.45;;;11.80;99.90;;;;;;5058418;28;20337;-71
2023/05/12 03:31:46;;;;;;;121.22;39.05;;;11.80;99.90;;;;;;5034105;28;20060;-71
2023/05/12 03:34:12;;;;;;;121.22;37.85;;;11.70;99.90;;;;;;5031360;28;20040;-71
2023/05/12 03:36:39;;;;;;;133.80;38.78;;;11.80;99.90;;;;;;5054163;28;20098;-70
2023/05/12 03:39:07;;;;;;;116.82;37.35;;;11.80;99.90;;;;;;5046440;28;20064;-71
2023/05/12 03:41:33;;;;;;;114.93;36.20;;;11.80;99.90;;;;;;5051519;28;20041;-71
2023/05/12 03:43:59;;;;;;;122.50;38.00;;;11.80;99.90;;;;;;5064056;28;20101;-71
2023/05/12 03:46:25;;;;;;;125.25;37.03;;;11.80;99.90;;;;;;5049593;28;20499;-71
2023/05/12 03:48:51;;;;;;;131.18;38.72;;;11.80;99.90;;;;;;5033878;28;20053;-71
2023/05/12 03:51:16;;;;;;;112.70;37.08;;;11.80;99.90;;;;;;5032554;28;20190;-72
2023/05/12 03:53:45;;;;;;;120.22;36.63;;;11.80;99.90;;;;;;5029551;28;20518;-71
2023/05/12 03:56:10;;;;;;;117.15;37.85;;;11.80;99.90;;;;;;5036492;28;20389;-71
2023/05/12 03:58:36;;;;;;;108.63;35.72;;;11.80;99.90;;;;;;5035660;28;20033;-72
2023/05/12 04:01:02;;;;;;;115.40;36.92;;;11.90;99.90;;;;;;5053832;28;20046;-72
2023/05/12 04:03:28;;;;;;;111.07;35.28;;;11.90;99.90;;;;;;5068297;28;20044;-72
2023/05/12 04:05:59;;;;;;;100.50;34.65;;;11.90;99.90;;;;;;5030873;28;20128;-71
2023/05/12 04:08:25;;;;;;;96.88;34.83;;;11.90;99.90;;;;;;5057023;28;20040;-70
2023/05/12 04:10:54;;;;;;;98.40;34.65;;;11.90;99.90;;;;;;5027435;28;20514;-71
2023/05/12 04:13:20;;;;;;;80.95;32.25;;;11.90;99.90;;;;;;5068230;28;20068;-71
2023/05/12 04:15:46;;;;;;;68.00;30.75;;;11.90;99.90;;;;;;5046177;28;20061;-71
2023/05/12 04:18:12;;;;;;;73.43;30.95;;;11.90;99.90;;;;;;5017668;28;20048;-71
2023/05/12 04:20:38;;;;;;;70.82;30.98;;;12.00;99.90;;;;;;5023180;28;20048;-71
2023/05/12 04:23:03;;;;;;;74.15;31.10;;;12.00;99.90;;;;;;5050051;28;20045;-71
2023/05/12 04:25:29;;;;;;;72.13;30.77;;;12.00;99.90;;;;;;5047588;28;20047;-70
2023/05/12 04:27:55;;;;;;;71.68;29.77;;;12.00;99.90;;;;;;5021846;28;20053;-71
2023/05/12 04:30:21;;;;;;;69.90;28.25;;;12.00;99.90;;;;;;5015867;28;20063;-70
2023/05/12 04:32:47;;;;;;;78.97;31.45;;;12.00;99.90;;;;;;5036539;28;20178;-70
2023/05/12 04:35:14;;;;;;;75.28;31.02;;;12.00;99.90;;;;;;5055454;28;20501;-70
2023/05/12 04:37:40;;;;;;;75.20;30.80;;;12.00;99.90;;;;;;5035431;28;20025;-70
2023/05/12 04:40:07;;;;;;;69.00;31.13;;;12.10;99.90;;;;;;5041194;28;20068;-71
2023/05/12 04:42:34;;;;;;;79.07;30.67;;;12.10;99.90;;;;;;5031375;28;20120;-71
2023/05/12 04:45:00;;;;;;;75.50;30.27;;;12.00;99.90;;;;;;5048916;28;20075;-71
2023/05/12 04:47:26;;;;;;;79.03;30.85;;;12.10;99.90;;;;;;5049254;28;20060;-71
2023/05/12 04:49:51;;;;;;;71.93;31.67;;;12.10;99.90;;;;;;5032163;28;20516;-70
2023/05/12 04:52:17;;;;;;;75.28;29.85;;;12.10;99.90;;;;;;5031581;28;20072;-71
2023/05/12 04:54:43;;;;;;;80.90;30.80;;;12.20;99.90;;;;;;5015334;28;20047;-71
2023/05/12 04:57:08;;;;;;;78.22;30.85;;;12.20;99.90;;;;;;5012977;28;20035;-71
2023/05/12 04:59:35;;;;;;;80.45;31.25;;;12.20;99.90;;;;;;5031145;28;20033;-71
2023/05/12 05:02:01;;;;;;;85.07;31.25;;;12.20;99.90;;;;;;5013471;28;20516;-71
2023/05/12 05:04:27;;;;;;;83.72;30.35;;;12.20;99.90;;;;;;5049628;28;20037;-70
2023/05/12 05:06:54;;;;;;;81.53;31.25;;;12.20;99.90;;;;;;5029943;28;20068;-70
2023/05/12 05:09:20;;;;;;;79.22;31.88;;;12.20;99.90;;;;;;5032692;28;20044;-71
2023/05/12 05:11:46;;;;;;;81.68;32.28;;;12.20;99.90;;;;;;5030652;28;20045;-71
2023/05/12 05:14:12;;;;;;;73.38;29.55;;;12.30;99.90;;;;;;5054156;28;20037;-71
2023/05/12 05:16:38;;;;;;;77.38;32.00;;;12.20;99.90;;;;;;5032077;28;20048;-70
2023/05/12 05:19:04;;;;;;;87.15;32.83;;;12.20;99.90;;;;;;5030780;28;20092;-71
2023/05/12 05:21:29;;;;;;;86.75;33.90;;;12.20;99.90;;;;;;5017579;28;20095;-71
2023/05/12 05:23:55;;;;;;;80.82;31.65;;;12.30;99.90;;;;;;5044864;28;20080;-71
2023/05/12 05:26:21;;;;;;;82.65;30.52;;;12.20;99.90;;;;;;5014558;28;20114;-71
2023/05/12 05:28:46;;;;;;;79.00;31.30;;;12.30;99.90;;;;;;5048506;28;20102;-71
2023/05/12 05:31:15;;;;;;;80.80;30.38;;;12.30;99.90;;;;;;5032147;28;20045;-71
2023/05/12 05:33:42;;;;;;;79.00;32.80;;;12.30;99.90;;;;;;5047692;28;20132;-71
2023/05/12 05:36:08;;;;;;;80.05;31.70;;;12.30;99.90;;;;;;5047585;28;20115;-71
2023/05/12 05:38:33;;;;;;;67.20;29.30;;;12.40;99.90;;;;;;5050250;28;20029;-71
2023/05/12 05:40:59;;;;;;;79.00;31.42;;;12.40;99.90;;;;;;5046292;28;20049;-71
2023/05/12 05:43:25;;;;;;;78.40;30.80;;;12.40;99.90;;;;;;5030602;28;20060;-71
2023/05/12 05:45:51;;;;;;;69.68;31.20;;;12.40;99.90;;;;;;5044543;28;20476;-71
2023/05/12 05:48:17;;;;;;;70.70;30.73;;;12.40;99.90;;;;;;5047718;28;20087;-71
2023/05/12 05:50:43;;;;;;;79.30;32.10;;;12.50;99.90;;;;;;5052871;28;20032;-71
2023/05/12 05:53:09;;;;;;;77.03;31.52;;;12.50;99.90;;;;;;5046054;28;20041;-71
2023/05/12 05:55:35;;;;;;;93.88;31.70;;;12.50;99.90;;;;;;5030802;28;20521;-71
2023/05/12 05:58:00;;;;;;;84.70;33.00;;;12.50;99.90;;;;;;5031771;28;20501;-71
2023/05/12 06:00:26;;;;;;;76.03;31.55;;;12.60;99.90;;;;;;5030873;28;20076;-71
2023/05/12 06:02:52;;;;;;;72.90;30.65;;;12.50;99.90;;;;;;5047908;28;20478;-71
2023/05/12 06:05:17;;;;;;;81.50;31.67;;;12.60;99.90;;;;;;5048963;28;20039;-71
2023/05/12 06:07:43;;;;;;;75.05;33.85;;;12.50;99.90;;;;;;5032691;28;20059;-71
2023/05/12 06:10:09;;;;;;;75.38;31.88;;;12.60;99.90;;;;;;5059399;28;20379;-71
2023/05/12 06:12:35;;;;;;;65.70;30.90;;;12.60;99.90;;;;;;5031852;28;20079;-71
2023/05/12 06:15:00;;;;;;;63.83;29.80;;;12.60;99.90;;;;;;5027786;28;20102;-71
2023/05/12 06:17:26;;;;;;;70.18;30.20;;;12.60;99.90;;;;;;5026684;28;20423;-71
2023/05/12 06:19:52;;;;;;;70.18;31.15;;;12.60;99.90;;;;;;5047804;28;20513;-71
2023/05/12 06:22:18;;;;;;;61.83;29.98;;;12.70;99.90;;;;;;5047196;28;20084;-71
2023/05/12 06:24:43;;;;;;;79.25;32.70;;;12.70;99.90;;;;;;4994994;28;20132;-71
2023/05/12 06:27:09;;;;;;;86.63;35.67;;;12.70;99.90;;;;;;5049152;28;20041;-71
2023/05/12 06:29:35;;;;;;;81.78;33.40;;;12.70;99.90;;;;;;5025069;28;20044;-71
2023/05/12 06:32:01;;;;;;;70.68;33.25;;;12.80;99.90;;;;;;4991702;28;20080;-71
2023/05/12 06:34:26;;;;;;;74.28;33.17;;;12.80;99.90;;;;;;5031832;28;20064;-71
2023/05/12 06:36:52;;;;;;;72.55;32.47;;;12.80;99.90;;;;;;5030837;28;20057;-71
2023/05/12 06:39:18;;;;;;;85.47;33.53;;;12.80;99.90;;;;;;5032451;28;20090;-70
2023/05/12 06:41:43;;;;;;;80.07;33.60;;;12.90;99.90;;;;;;5017986;28;20041;-70
2023/05/12 06:44:11;;;;;;;84.75;32.83;;;12.90;99.90;;;;;;4994407;28;20311;-70
2023/05/12 06:46:40;;;;;;;74.22;33.75;;;12.90;99.90;;;;;;4999871;28;20102;-70
2023/05/12 06:49:07;;;;;;;71.45;31.52;;;12.90;99.90;;;;;;5034700;28;20525;-70
2023/05/12 06:51:32;;;;;;;72.25;32.33;;;12.90;99.90;;;;;;5032481;28;20052;-70
2023/05/12 06:53:59;;;;;;;77.35;33.28;;;13.00;99.90;;;;;;5019032;28;20032;-71
2023/05/12 06:56:25;;;;;;;77.90;33.60;;;13.00;99.90;;;;;;5017898;28;20049;-70
2023/05/12 06:58:51;;;;;;;75.97;32.47;;;13.10;99.90;;;;;;5018721;28;20055;-70
2023/05/12 07:01:17;;;;;;;62.55;30.67;;;13.10;99.90;;;;;;5030725;28;20036;-71
2023/05/12 07:03:42;;;;;;;63.47;30.85;;;13.10;99.90;;;;;;5032700;28;20036;-71
2023/05/12 07:06:08;;;;;;;66.15;31.00;;;13.20;99.90;;;;;;5018990;28;20956;-71
2023/05/12 07:08:34;;;;;;;65.55;32.40;;;13.20;99.90;;;;;;5051224;28;20052;-68
2023/05/12 07:11:00;;;;;;;57.40;29.55;;;13.30;99.90;;;;;;5036765;28;20036;-71
2023/05/12 07:13:26;;;;;;;65.00;31.65;;;13.30;99.90;;;;;;5060311;28;20463;-71
2023/05/12 07:15:52;;;;;;;62.28;30.83;;;13.30;99.90;;;;;;5039440;28;20111;-71
2023/05/12 07:18:18;;;;;;;62.47;29.92;;;13.40;99.90;;;;;;5033654;28;20115;-71
2023/05/12 07:20:45;;;;;;;53.72;28.30;;;13.30;99.90;;;;;;5050469;28;20632;-71
2023/05/12 07:23:11;;;;;;;54.92;28.88;;;13.30;99.90;;;;;;5063679;28;20090;-71
2023/05/12 07:25:38;;;;;;;59.20;31.05;;;13.30;99.90;;;;;;5027594;28;20142;-71
2023/05/12 07:28:04;;;;;;;62.28;29.65;;;13.30;99.90;;;;;;5027719;28;20071;-71
2023/05/12 07:30:30;;;;;;;57.03;28.10;;;13.40;99.90;;;;;;5057721;28;20041;-71
2023/05/12 07:32:56;;;;;;;57.83;30.05;;;13.40;99.90;;;;;;5019125;28;20049;-71
2023/05/12 07:35:22;;;;;;;56.67;28.38;;;13.40;99.90;;;;;;5028247;28;20490;-71
2023/05/12 07:37:48;;;;;;;58.92;29.50;;;13.40;99.90;;;;;;5053325;28;20040;-71
2023/05/12 07:40:14;;;;;;;59.50;29.40;;;13.40;99.90;;;;;;5039550;28;20036;-72
2023/05/12 07:42:39;;;;;;;61.63;31.88;;;13.40;99.90;;;;;;5044015;28;20048;-72
2023/05/12 07:45:06;;;;;;;62.58;32.80;;;13.30;99.90;;;;;;5046976;28;20068;-72
2023/05/12 07:47:32;;;;;;;58.97;30.23;;;13.40;99.90;;;;;;5044636;28;20073;-72
2023/05/12 07:49:57;;;;;;;55.95;28.13;;;13.40;99.90;;;;;;5027140;28;20048;-72
2023/05/12 07:52:23;;;;;;;57.63;29.02;;;13.40;99.90;;;;;;5040737;28;20041;-72
2023/05/12 07:54:49;;;;;;;59.55;29.77;;;13.40;99.90;;;;;;5046760;28;20033;-71
2023/05/12 07:57:15;;;;;;;60.60;30.75;;;13.50;99.90;;;;;;5032252;28;20129;-70
2023/05/12 07:59:41;;;;;;;58.33;29.85;;;13.60;99.90;;;;;;5035710;28;20576;-71
2023/05/12 08:02:07;;;;;;;51.78;29.15;;;13.60;99.90;;;;;;5040695;28;20040;-71
2023/05/12 08:04:33;;;;;;;53.75;27.05;;;13.70;99.90;;;;;;5033715;28;20047;-71
2023/05/12 08:06:58;;;;;;;46.60;26.25;;;13.70;99.90;;;;;;5039726;28;20033;-71
2023/05/12 08:09:24;;;;;;;49.47;28.92;;;13.80;99.90;;;;;;5025261;28;20044;-71
2023/05/12 08:11:50;;;;;;;42.85;24.98;;;13.90;99.90;;;;;;5057416;28;20037;-71
2023/05/12 08:14:16;;;;;;;48.38;27.35;;;14.00;99.90;;;;;;5026561;28;20041;-71
2023/05/12 08:16:44;;;;;;;46.78;27.60;;;14.00;99.90;;;;;;5039308;28;20051;-71
2023/05/12 08:19:13;;;;;;;43.15;26.58;;;14.10;99.90;;;;;;5041540;28;20045;-70
2023/05/12 08:21:39;;;;;;;45.67;27.08;;;14.10;99.90;;;;;;5048182;28;20179;-71
2023/05/12 08:24:05;;;;;;;44.47;26.35;;;14.20;99.90;;;;;;5042643;28;20037;-72
2023/05/12 08:26:31;;;;;;;45.40;28.55;;;14.40;99.90;;;;;;5049663;28;20072;-71
2023/05/12 08:28:56;;;;;;;42.55;26.83;;;14.50;99.90;;;;;;5062361;28;20418;-71
2023/05/12 08:31:22;;;;;;;44.35;26.65;;;14.60;99.90;;;;;;5051405;28;20106;-71
2023/05/12 08:33:48;;;;;;;41.65;25.65;;;14.80;99.90;;;;;;5022177;28;20131;-71
2023/05/12 08:36:13;;;;;;;40.42;26.35;;;15.00;99.90;;;;;;5027592;28;20492;-71
2023/05/12 08:38:39;;;;;;;39.95;26.13;;;15.00;99.90;;;;;;5042724;28;20416;-71
2023/05/12 08:41:30;;;;;;;39.50;24.85;;;15.30;99.90;;;;;;5044065;28;20043;-71
2023/05/12 08:43:57;;;;;;;39.88;25.63;;;15.50;99.90;;;;;;5054273;28;20036;-72
2023/05/12 08:46:24;;;;;;;35.85;23.83;;;15.80;99.90;;;;;;5048703;28;20123;-72
2023/05/12 08:48:52;;;;;;;36.95;25.05;;;15.80;99.90;;;;;;5056653;28;20033;-72
2023/05/12 08:51:19;;;;;;;34.67;23.65;;;15.90;99.90;;;;;;5048028;28;20048;-71
2023/05/12 08:53:47;;;;;;;34.33;23.98;;;15.90;99.90;;;;;;5017999;28;20036;-71
2023/05/12 08:56:18;;;;;;;35.47;24.80;;;16.00;99.90;;;;;;5052750;28;20494;-71
2023/05/12 08:58:45;;;;;;;36.67;25.52;;;16.00;99.90;;;;;;5057641;28;21267;-71
2023/05/12 09:01:13;;;;;;;33.47;23.80;;;16.00;99.90;;;;;;5066694;28;20136;-72
2023/05/12 09:03:39;;;;;;;32.50;23.75;;;16.10;99.90;;;;;;5046929;28;20045;-72
2023/05/12 09:06:05;;;;;;;34.75;23.58;;;16.10;99.90;;;;;;5069923;28;20036;-72
2023/05/12 09:08:33;;;;;;;29.15;22.20;;;16.20;99.90;;;;;;5044011;28;20052;-72
2023/05/12 09:10:59;;;;;;;32.88;23.85;;;16.30;99.90;;;;;;5051853;28;20051;-72
2023/05/12 09:13:45;;;;;;;31.20;23.15;;;16.40;99.90;;;;;;5054861;28;20665;-73
2023/05/12 09:16:12;;;;;;;30.92;22.40;;;16.50;99.90;;;;;;5072420;28;20036;-72
2023/05/12 09:18:58;;;;;;;29.13;21.27;;;16.70;99.90;;;;;;5034908;28;20099;-71
2023/05/12 09:21:25;;;;;;;26.55;21.02;;;16.90;99.90;;;;;;5052258;28;20119;-72
2023/05/12 09:23:59;;;;;;;27.20;20.98;;;17.00;99.90;;;;;;5060633;28;20123;-73
2023/05/12 09:26:26;;;;;;;38.35;22.42;;;17.10;99.90;;;;;;5038123;28;20040;-73
2023/05/12 09:28:54;;;;;;;29.15;22.20;;;17.40;99.90;;;;;;5028291;28;20099;-73
2023/05/12 09:40:52;;;;;;;24.60;20.48;;;19.60;99.90;;;;;;5019608;22;20050;-82
2023/05/12 09:43:18;;;;;;;22.50;18.80;;;19.40;99.90;;;;;;5010434;28;20140;-78
2023/05/12 09:45:46;;;;;;;22.55;19.40;;;19.30;99.90;;;;;;4996294;28;20051;-77
2023/05/12 09:48:12;;;;;;;24.02;18.85;;;19.50;99.90;;;;;;4995803;28;20103;-78
2023/05/12 09:50:47;;;;;;;21.40;17.38;;;19.70;99.90;;;;;;4984199;28;20046;-80
2023/05/12 09:53:13;;;;;;;22.58;18.38;;;19.60;99.90;;;;;;5022801;28;20041;-80
2023/05/12 09:55:41;;;;;;;20.02;17.85;;;19.60;99.90;;;;;;5013222;28;20064;-80
2023/05/12 09:58:09;;;;;;;22.13;18.63;;;19.60;99.90;;;;;;5009381;28;20041;-78
2023/05/12 10:00:39;;;;;;;21.05;18.25;;;19.70;99.90;;;;;;4993924;28;20038;-78
2023/05/12 10:03:15;;;;;;;20.65;17.80;;;20.00;99.90;;;;;;5009560;28;20033;-77
2023/05/12 10:05:47;;;;;;;20.55;16.52;;;20.30;99.90;;;;;;4994949;28;20037;-76
2023/05/12 10:08:20;;;;;;;19.60;16.60;;;20.30;99.90;;;;;;5007423;28;20049;-76
2023/05/12 10:10:49;;;;;;;15.75;14.05;;;20.20;99.90;;;;;;5000585;28;20392;-76
2023/05/12 10:13:15;;;;;;;17.08;14.70;;;20.30;99.90;;;;;;5008426;28;20409;-76
2023/05/12 10:15:41;;;;;;;18.27;14.88;;;20.40;99.90;;;;;;5011390;28;20041;-76
2023/05/12 10:18:08;;;;;;;14.10;12.35;;;20.50;99.90;;;;;;4993926;28;20097;-76
2023/05/12 10:20:35;;;;;;;18.55;12.85;;;20.50;99.90;;;;;;4990865;28;20112;-76
2023/05/12 10:23:01;;;;;;;15.65;13.05;;;20.70;99.90;;;;;;5007336;28;20034;-76
2023/05/12 10:25:27;;;;;;;13.05;10.68;;;20.70;99.90;;;;;;5003042;28;20117;-76
2023/05/12 10:27:54;;;;;;;14.15;11.90;;;20.90;99.90;;;;;;5021422;28;20572;-76
2023/05/12 10:30:21;;;;;;;15.38;13.77;;;21.10;99.90;;;;;;5005626;28;20042;-72
2023/05/12 10:32:47;;;;;;;16.20;13.15;;;21.20;99.90;;;;;;4982497;28;20187;-73
2023/05/12 10:35:13;;;;;;;15.48;12.52;;;21.10;99.90;;;;;;5006463;28;20523;-74
2023/05/12 10:37:41;;;;;;;17.50;13.75;;;21.10;99.90;;;;;;4973412;28;20046;-71
2023/05/12 10:40:09;;;;;;;17.58;14.57;;;21.30;99.90;;;;;;5009428;28;20564;-71
2023/05/12 10:42:41;;;;;;;17.88;14.88;;;21.40;99.90;;;;;;5005051;28;20058;-70
2023/05/12 10:45:18;;;;;;;16.40;14.38;;;21.40;99.90;;;;;;5006187;28;20053;-70
2023/05/12 10:47:45;;;;;;;20.08;17.05;;;21.50;99.90;;;;;;5005183;28;20076;-70
2023/05/12 10:50:12;;;;;;;18.63;16.63;;;21.60;99.90;;;;;;4987201;28;20506;-71
2023/05/12 10:52:52;;;;;;;19.90;17.38;;;21.70;99.90;;;;;;4994856;28;20522;-71
2023/05/12 10:55:29;;;;;;;20.20;17.65;;;21.90;99.90;;;;;;4998164;28;20065;-69
2023/05/12 10:58:03;;;;;;;18.55;16.50;;;22.10;99.90;;;;;;4997666;28;20698;-70
2023/05/12 11:00:29;;;;;;;27.48;17.27;;;22.20;99.90;;;;;;4993490;28;20033;-71
2023/05/12 11:02:55;;;;;;;19.38;16.15;;;22.40;99.90;;;;;;4989171;28;20087;-71
2023/05/12 11:05:20;;;;;;;17.67;15.52;;;22.70;99.90;;;;;;4986874;28;20038;-71
2023/05/12 11:07:48;;;;;;;16.30;14.55;;;22.90;99.90;;;;;;4971995;28;20042;-71
2023/05/12 11:10:14;;;;;;;18.70;15.07;;;23.00;99.90;;;;;;4987176;28;20108;-71
2023/05/12 11:12:43;;;;;;;16.85;14.82;;;23.20;99.90;;;;;;4981270;28;20050;-72
2023/05/12 11:15:09;;;;;;;17.98;15.30;;;23.30;99.90;;;;;;4984780;28;20518;-72
2023/05/12 11:17:39;;;;;;;18.40;16.25;;;23.30;99.90;;;;;;4981439;28;20050;-71
2023/05/12 11:20:08;;;;;;;17.08;15.38;;;23.40;99.90;;;;;;4985426;28;20116;-71
2023/05/12 11:22:34;;;;;;;18.90;16.58;;;23.50;99.90;;;;;;4989500;28;20129;-71
2023/05/12 11:25:09;;;;;;;18.90;15.18;;;23.50;99.90;;;;;;4989066;28;20120;-71
2023/05/12 11:27:38;;;;;;;18.35;14.85;;;23.50;99.90;;;;;;4989066;28;20498;-70
2023/05/12 11:30:04;;;;;;;16.88;14.55;;;23.50;99.90;;;;;;4989805;28;20041;-71
2023/05/12 11:32:30;;;;;;;14.90;12.82;;;23.50;99.90;;;;;;4986390;28;20042;-71
2023/05/12 11:35:06;;;;;;;16.55;14.48;;;23.50;99.90;;;;;;4967486;28;20045;-70
2023/05/12 11:37:36;;;;;;;17.60;14.93;;;23.50;99.90;;;;;;5000420;28;20049;-71
2023/05/12 11:40:10;;;;;;;14.27;11.95;;;23.50;99.90;;;;;;5000207;28;20041;-71
2023/05/12 11:42:36;;;;;;;15.77;14.00;;;23.50;99.90;;;;;;4997988;28;20395;-71
2023/05/12 11:45:02;;;;;;;15.38;13.77;;;23.50;99.90;;;;;;4982481;28;20219;-71
2023/05/12 11:47:27;;;;;;;15.70;14.18;;;23.60;99.90;;;;;;4994750;28;20041;-71
2023/05/12 11:49:54;;;;;;;13.85;12.30;;;23.90;99.90;;;;;;5003914;28;20417;-71
2023/05/12 11:52:21;;;;;;;12.25;11.00;;;23.90;99.90;;;;;;4981790;28;20565;-71
2023/05/12 11:54:59;;;;;;;11.60;10.40;;;23.90;99.90;;;;;;4999068;28;20030;-71
2023/05/12 11:57:30;;;;;;;13.50;12.18;;;24.00;99.90;;;;;;4997323;28;20048;-71
2023/05/12 11:59:58;;;;;;;16.20;12.60;;;23.90;99.90;;;;;;4998114;28;20033;-71
2023/05/12 12:02:24;;;;;;;14.00;11.50;;;24.00;99.90;;;;;;4996770;28;20454;-71
2023/05/12 12:04:50;;;;;;;14.23;10.55;;;23.90;99.90;;;;;;5013573;28;20132;-71
2023/05/12 12:07:26;;;;;;;7.47;6.50;;;24.20;99.90;;;;;;4995035;28;20734;-71
2023/05/12 12:09:52;;;;;;;7.85;6.43;;;24.20;99.30;;;;;;4984064;28;20064;-71
2023/05/12 12:12:18;;;;;;;8.95;7.10;;;24.20;98.10;;;;;;4965652;28;20478;-71
2023/05/12 12:14:44;;;;;;;13.52;6.22;;;24.20;98.10;;;;;;4980123;28;20040;-70
2023/05/12 12:17:09;;;;;;;8.20;7.35;;;24.40;97.30;;;;;;5008635;28;21555;-71
2023/05/12 12:19:35;;;;;;;8.13;6.20;;;24.40;98.20;;;;;;5010983;28;20038;-71
2023/05/12 12:22:00;;;;;;;8.68;7.65;;;24.60;97.10;;;;;;5011340;28;20064;-71
2023/05/12 12:24:26;;;;;;;10.13;7.03;;;24.60;97.40;;;;;;5012162;28;20045;-71
2023/05/12 12:26:52;;;;;;;6.82;6.10;;;24.70;96.20;;;;;;4995455;28;20508;-71
2023/05/12 12:29:18;;;;;;;9.05;6.45;;;24.60;95.90;;;;;;4990338;28;20179;-71
2023/05/12 12:31:44;;;;;;;9.32;6.72;;;24.50;96.00;;;;;;5008887;28;20041;-79
2023/05/12 12:34:10;;;;;;;7.25;5.50;;;24.60;96.90;;;;;;5003357;28;20883;-77